Terminal Aerodrome Forecast
Issued by NWS

Home | Current Version | Previous Version | Text Only | Print | Product List | Glossary On
Versions: 1 2 3 4 5 6 7 8 9 10 11 12 13 14 15 16 17 18 19 20 21 22 23
000
FTUS46 KLOX 041700
TAFOXR
TAF
KOXR 041727Z 0418/0518 27008KT P6SM OVC025
     FM042100 27014KT P6SM SCT025
     FM050200 27008KT P6SM FEW025
     FM050700 VRB03KT P6SM OVC015=

USA.gov is the U.S. government's official web portal to all federal, state and local government web resources and services.